createdAt,value
2023-05-25T00:01:00.423Z,5.90
2023-05-25T00:03:31.422Z,6.23
2023-05-25T00:06:01.574Z,5.43
2023-05-25T00:08:29.616Z,6.27
2023-05-25T00:10:56.446Z,6.10
2023-05-25T00:13:23.178Z,5.80
2023-05-25T00:15:50.553Z,5.63
2023-05-25T00:18:18.440Z,6.17
2023-05-25T00:20:45.985Z,6.53
2023-05-25T00:23:12.735Z,5.77
2023-05-25T00:25:39.500Z,6.50
2023-05-25T00:28:06.407Z,6.43
2023-05-25T00:30:33.197Z,5.60
2023-05-25T00:33:01.565Z,6.60
2023-05-25T00:35:28.787Z,6.70
2023-05-25T00:37:55.869Z,6.00
2023-05-25T00:40:22.707Z,6.80
2023-05-25T00:42:49.519Z,5.87
2023-05-25T00:45:16.329Z,6.60
2023-05-25T00:47:45.570Z,6.97
2023-05-25T00:50:15.348Z,6.80
2023-05-25T00:52:42.343Z,5.50
2023-05-25T00:55:12.075Z,6.37
2023-05-25T00:57:41.542Z,6.43
2023-05-25T01:00:11.510Z,6.73
2023-05-25T01:02:40.955Z,5.80
2023-05-25T01:05:10.764Z,6.33
2023-05-25T01:07:39.234Z,6.20
2023-05-25T01:10:06.904Z,6.60
2023-05-25T01:12:39.278Z,7.00
2023-05-25T01:15:07.113Z,6.30
2023-05-25T01:17:38.226Z,7.30
2023-05-25T01:20:11.735Z,7.00
2023-05-25T01:22:38.890Z,7.57
2023-05-25T01:25:14.802Z,7.17
2023-05-25T01:27:50.421Z,6.67
2023-05-25T01:30:19.460Z,7.60
2023-05-25T01:32:46.443Z,7.10
2023-05-25T01:35:14.887Z,7.63
2023-05-25T01:37:49.352Z,8.40
2023-05-25T01:40:16.308Z,8.00
2023-05-25T01:42:43.145Z,8.07
2023-05-25T01:45:11.892Z,7.20
2023-05-25T01:47:53.486Z,6.83
2023-05-25T01:50:35.622Z,7.80
2023-05-25T01:53:26.341Z,7.30
2023-05-25T01:56:02.367Z,8.17
2023-05-25T01:58:35.456Z,7.43
2023-05-25T02:01:02.746Z,7.57
2023-05-25T02:03:29.622Z,7.30
2023-05-25T02:05:57.940Z,6.77
2023-05-25T02:08:24.835Z,7.13
2023-05-25T02:10:51.747Z,6.33
2023-05-25T02:13:18.534Z,7.67
2023-05-25T02:15:45.724Z,6.83
2023-05-25T02:18:13.814Z,8.00
2023-05-25T02:20:40.874Z,6.63
2023-05-25T02:23:07.763Z,6.90
2023-05-25T02:25:34.561Z,8.50
2023-05-25T02:28:01.435Z,8.20
2023-05-25T02:30:28.252Z,7.83
2023-05-25T02:32:55.086Z,9.00
2023-05-25T02:35:22.063Z,8.27
2023-05-25T02:37:51.020Z,8.23
2023-05-25T02:40:18.449Z,8.30
2023-05-25T02:42:45.323Z,8.37
2023-05-25T02:45:12.191Z,8.37
2023-05-25T02:47:39.266Z,7.70
2023-05-25T02:50:06.562Z,7.67
2023-05-25T02:52:33.719Z,8.87
2023-05-25T02:55:01.069Z,7.93
2023-05-25T02:57:28.497Z,7.10
2023-05-25T02:59:55.339Z,8.33
2023-05-25T03:02:25.379Z,7.17
2023-05-25T03:04:53.922Z,8.77
2023-05-25T03:07:21.446Z,7.87
2023-05-25T03:09:48.139Z,7.53
2023-05-25T03:12:15.052Z,8.10
2023-05-25T03:14:41.804Z,8.03
2023-05-25T03:17:08.579Z,7.60
2023-05-25T03:19:35.391Z,8.07
2023-05-25T03:22:03.891Z,8.00
2023-05-25T03:24:30.662Z,7.87
2023-05-25T03:26:57.549Z,8.37
2023-05-25T03:29:24.289Z,8.73
2023-05-25T03:31:51.098Z,8.23
2023-05-25T03:34:17.914Z,8.73
2023-05-25T03:36:47.423Z,8.23
2023-05-25T03:39:14.207Z,8.73
2023-05-25T03:41:41.096Z,8.60
2023-05-25T03:44:07.966Z,9.03
2023-05-25T03:46:34.701Z,9.70
2023-05-25T03:49:01.455Z,8.60
2023-05-25T03:51:29.449Z,8.57
2023-05-25T03:53:56.294Z,8.60
2023-05-25T03:56:23.257Z,9.90
2023-05-25T03:58:50.114Z,9.90
2023-05-25T04:01:16.853Z,10.00
2023-05-25T04:03:43.713Z,10.90
2023-05-25T04:06:11.569Z,10.33
2023-05-25T04:08:40.979Z,10.20
2023-05-25T04:11:07.741Z,9.53
2023-05-25T04:13:36.376Z,10.47
2023-05-25T04:16:03.333Z,10.20
2023-05-25T04:18:30.145Z,10.50
2023-05-25T04:20:57.487Z,9.90
2023-05-25T04:23:24.341Z,9.83
2023-05-25T04:25:51.300Z,9.00
2023-05-25T04:28:18.654Z,9.10
2023-05-25T04:30:45.469Z,9.40
2023-05-25T04:33:12.509Z,9.90
2023-05-25T04:35:40.767Z,9.93
2023-05-25T04:38:07.527Z,9.60
2023-05-25T04:40:35.573Z,10.03
2023-05-25T04:43:03.471Z,9.20
2023-05-25T04:45:31.984Z,9.70
2023-05-25T04:48:01.550Z,8.90
2023-05-25T04:50:28.618Z,9.77
2023-05-25T04:52:55.418Z,9.30
2023-05-25T04:55:22.170Z,9.63
2023-05-25T04:57:48.916Z,8.53
2023-05-25T05:00:16.729Z,8.60
2023-05-25T05:02:44.203Z,10.70
2023-05-25T05:05:11.137Z,10.03
2023-05-25T05:07:38.292Z,9.70
2023-05-25T05:10:06.220Z,9.97
2023-05-25T05:12:33.062Z,10.10
2023-05-25T05:14:59.874Z,9.40
2023-05-25T05:17:28.051Z,9.50
2023-05-25T05:19:54.838Z,9.83
2023-05-25T05:22:21.688Z,10.10
2023-05-25T05:24:48.406Z,10.23
2023-05-25T05:27:16.019Z,10.43
2023-05-25T05:29:43.042Z,10.40
2023-05-25T05:32:09.877Z,9.70
2023-05-25T05:34:37.588Z,10.07
2023-05-25T05:37:04.494Z,9.17
2023-05-25T05:39:31.446Z,10.13
2023-05-25T05:41:58.317Z,9.83
2023-05-25T05:44:28.796Z,10.50
2023-05-25T05:47:00.787Z,8.80
2023-05-25T05:49:29.563Z,10.63
2023-05-25T05:51:56.459Z,9.83
2023-05-25T05:54:23.272Z,9.67
2023-05-25T05:56:51.091Z,10.53
2023-05-25T05:59:17.974Z,10.33
2023-05-25T06:01:44.780Z,9.90
2023-05-25T06:04:11.618Z,10.30
2023-05-25T06:06:40.505Z,10.47
2023-05-25T06:09:07.283Z,9.60
2023-05-25T06:11:37.464Z,10.07
2023-05-25T06:14:04.640Z,10.50
2023-05-25T06:16:31.572Z,12.60
2023-05-25T06:18:58.759Z,10.23
2023-05-25T06:21:25.513Z,10.60
2023-05-25T06:23:52.229Z,10.60
2023-05-25T06:26:19.064Z,10.63
2023-05-25T06:28:47.694Z,10.80
2023-05-25T06:31:14.522Z,9.80
2023-05-25T06:33:41.375Z,11.87
2023-05-25T06:36:09.133Z,9.77
2023-05-25T06:38:35.871Z,9.70
2023-05-25T06:41:04.852Z,10.23
2023-05-25T06:43:32.307Z,9.90
2023-05-25T06:45:59.281Z,10.13
2023-05-25T06:48:26.474Z,9.33
2023-05-25T06:50:53.230Z,8.83
2023-05-25T06:53:20.003Z,9.00
2023-05-25T06:55:46.973Z,9.37
2023-05-25T06:58:13.804Z,9.87
2023-05-25T07:00:40.524Z,9.57
2023-05-25T07:03:07.305Z,9.30
2023-05-25T07:05:34.125Z,9.53
2023-05-25T07:08:00.853Z,9.37
2023-05-25T07:10:27.638Z,9.10
2023-05-25T07:12:54.352Z,9.97
2023-05-25T07:15:21.734Z,9.70
2023-05-25T07:17:48.536Z,10.50
2023-05-25T07:20:15.528Z,10.10
2023-05-25T07:22:43.676Z,8.50
2023-05-25T07:25:10.573Z,9.30
2023-05-25T07:27:37.408Z,9.20
2023-05-25T07:30:04.900Z,8.47
2023-05-25T07:32:31.695Z,9.13
2023-05-25T07:34:58.615Z,9.17
2023-05-25T07:37:25.435Z,8.13
2023-05-25T07:39:52.232Z,8.23
2023-05-25T07:42:21.096Z,8.30
2023-05-25T07:44:48.812Z,9.37
2023-05-25T07:47:15.733Z,8.77
2023-05-25T07:49:42.506Z,8.43
2023-05-25T07:52:09.315Z,9.07
2023-05-25T07:54:40.116Z,7.67
2023-05-25T07:57:07.932Z,7.97
2023-05-25T07:59:35.271Z,9.40
2023-05-25T08:02:02.714Z,9.10
2023-05-25T08:04:31.149Z,8.67
2023-05-25T08:06:58.035Z,9.50
2023-05-25T08:09:24.773Z,9.60
2023-05-25T08:11:52.265Z,10.40
2023-05-25T08:14:20.915Z,9.17
2023-05-25T08:16:47.783Z,9.70
2023-05-25T08:19:14.624Z,10.43
2023-05-25T08:21:41.445Z,8.40
2023-05-25T08:24:08.575Z,9.40
2023-05-25T08:26:52.964Z,10.10
2023-05-25T08:29:21.347Z,9.40
2023-05-25T08:31:49.712Z,10.30
2023-05-25T08:34:17.053Z,9.37
2023-05-25T08:36:44.751Z,9.63
2023-05-25T08:39:11.634Z,8.40
2023-05-25T08:41:43.577Z,8.60
2023-05-25T08:44:11.123Z,8.50
2023-05-25T08:46:38.322Z,7.40
2023-05-25T08:49:10.157Z,7.43
2023-05-25T08:51:39.227Z,7.10
2023-05-25T08:54:12.088Z,7.77
2023-05-25T08:56:52.143Z,7.57
2023-05-25T08:59:18.800Z,7.20
2023-05-25T09:01:49.874Z,6.63
2023-05-25T09:04:19.705Z,6.20
2023-05-25T09:06:57.306Z,5.63
2023-05-25T09:09:29.096Z,6.20
2023-05-25T09:11:57.637Z,6.40
2023-05-25T09:14:24.357Z,6.10
2023-05-25T09:16:51.450Z,6.47
2023-05-25T09:19:18.482Z,6.03
2023-05-25T09:21:45.345Z,6.40
2023-05-25T09:24:12.446Z,5.33
2023-05-25T09:26:39.379Z,6.80
2023-05-25T09:29:06.165Z,6.77
2023-05-25T09:31:33.261Z,6.10
2023-05-25T09:34:00.608Z,7.23
2023-05-25T09:36:27.683Z,6.83
2023-05-25T09:38:55.542Z,7.07
2023-05-25T09:41:23.334Z,6.40
2023-05-25T09:46:21.557Z,7.27
2023-05-25T09:48:49.217Z,8.37
2023-05-25T09:51:15.974Z,7.27
2023-05-25T09:53:43.089Z,7.03
2023-05-25T09:56:12.598Z,7.00
2023-05-25T09:58:39.469Z,7.37
2023-05-25T10:01:06.317Z,6.63
2023-05-25T10:03:33.224Z,7.57
2023-05-25T10:06:01.077Z,8.07
2023-05-25T10:08:29.216Z,7.60
2023-05-25T10:10:56.079Z,8.77
2023-05-25T10:13:23.248Z,9.20
2023-05-25T10:15:53.577Z,7.77
2023-05-25T10:18:25.897Z,6.50
2023-05-25T10:21:02.835Z,6.30
2023-05-25T10:23:45.045Z,7.27
2023-05-25T10:26:16.937Z,6.43
2023-05-25T10:28:45.948Z,8.20
2023-05-25T10:31:14.618Z,6.53
2023-05-25T10:33:41.622Z,5.30
2023-05-25T10:36:11.567Z,8.47
2023-05-25T10:38:40.604Z,7.73
2023-05-25T10:41:09.601Z,6.97
2023-05-25T10:43:37.150Z,7.30
2023-05-25T10:46:05.771Z,9.00
2023-05-25T10:48:48.975Z,7.90
2023-05-25T10:51:15.939Z,7.87
2023-05-25T10:53:47.455Z,7.63
2023-05-25T10:56:14.546Z,8.20
2023-05-25T10:58:46.498Z,7.43
2023-05-25T11:01:15.773Z,8.83
2023-05-25T11:03:47.976Z,7.70
2023-05-25T11:06:16.292Z,7.10
2023-05-25T11:08:56.820Z,7.87
2023-05-25T11:11:43.581Z,8.00
2023-05-25T11:14:26.865Z,7.73
2023-05-25T11:17:18.330Z,8.20
2023-05-25T11:19:51.703Z,7.73
2023-05-25T11:22:40.200Z,7.30
2023-05-25T11:25:45.062Z,6.60
2023-05-25T11:28:12.920Z,7.67
2023-05-25T11:30:43.101Z,7.30
2023-05-25T11:33:10.131Z,7.50
2023-05-25T11:35:37.255Z,6.90
2023-05-25T11:38:08.093Z,7.03
2023-05-25T11:40:37.022Z,6.03
2023-05-25T11:43:08.097Z,7.63
2023-05-25T11:45:37.298Z,7.80
2023-05-25T11:48:05.441Z,10.00
2023-05-25T11:50:33.252Z,9.50
2023-05-25T11:53:00.021Z,9.73
2023-05-25T11:55:26.823Z,7.10
2023-05-25T11:57:57.933Z,7.90
2023-05-25T12:00:26.365Z,7.53
2023-05-25T12:02:53.287Z,7.60
2023-05-25T12:05:20.347Z,10.00
2023-05-25T12:07:47.408Z,9.90
2023-05-25T12:10:18.538Z,9.70
2023-05-25T12:12:46.436Z,9.47
2023-05-25T12:15:19.050Z,8.70
2023-05-25T12:17:47.484Z,8.17
2023-05-25T12:20:16.104Z,9.03
2023-05-25T12:22:44.454Z,9.03
2023-05-25T12:25:12.862Z,9.30
2023-05-25T12:27:40.365Z,9.93
2023-05-25T12:30:10.273Z,10.77
2023-05-25T12:33:02.874Z,8.50
2023-05-25T12:35:44.221Z,9.27
2023-05-25T12:38:11.992Z,8.90
2023-05-25T12:40:38.836Z,9.03
2023-05-25T12:43:05.941Z,9.80
2023-05-25T12:45:32.963Z,11.30
2023-05-25T12:48:00.262Z,10.47
2023-05-25T12:50:29.491Z,9.70
2023-05-25T12:53:02.396Z,10.80
2023-05-25T12:55:31.640Z,11.20
2023-05-25T12:58:04.640Z,11.90
2023-05-25T13:00:36.651Z,11.10
2023-05-25T13:03:04.868Z,11.10
2023-05-25T13:05:34.041Z,8.50
2023-05-25T13:08:04.275Z,7.87
2023-05-25T13:10:32.781Z,7.53
2023-05-25T13:13:00.725Z,6.33
2023-05-25T13:15:27.768Z,6.77
2023-05-25T13:17:56.473Z,6.73
2023-05-25T13:20:25.384Z,8.73
2023-05-25T13:22:53.576Z,5.73
2023-05-25T13:25:22.116Z,5.10
2023-05-25T13:27:51.005Z,5.60
2023-05-25T13:30:18.376Z,5.50
2023-05-25T13:32:45.166Z,6.93
2023-05-25T13:35:19.165Z,5.83
2023-05-25T13:37:46.336Z,4.80
2023-05-25T13:40:13.564Z,5.47
2023-05-25T13:42:40.514Z,4.87
2023-05-25T13:45:07.875Z,7.10
2023-05-25T13:47:34.881Z,5.67
2023-05-25T13:50:01.763Z,5.53
2023-05-25T13:52:28.625Z,5.60
2023-05-25T13:54:55.446Z,5.20
2023-05-25T13:57:22.727Z,5.10
2023-05-25T13:59:49.461Z,5.30
2023-05-25T14:02:16.548Z,5.57
2023-05-25T14:04:43.308Z,6.47
2023-05-25T14:07:10.100Z,6.17
2023-05-25T14:09:36.885Z,6.07
2023-05-25T14:12:04.199Z,5.20
2023-05-25T14:14:32.820Z,5.50
2023-05-25T14:17:01.077Z,5.90
2023-05-25T14:19:28.642Z,6.27
2023-05-25T14:22:11.605Z,7.63
2023-05-25T14:24:39.804Z,6.60
2023-05-25T14:27:09.426Z,7.90
2023-05-25T14:29:36.591Z,6.67
2023-05-25T14:32:03.679Z,6.47
2023-05-25T14:34:30.586Z,7.43
2023-05-25T14:36:57.547Z,8.30
2023-05-25T14:39:24.370Z,7.03
2023-05-25T14:41:51.064Z,7.20
2023-05-25T14:44:17.816Z,6.93
2023-05-25T14:46:44.621Z,5.27
2023-05-25T14:49:11.640Z,6.10
2023-05-25T14:51:38.789Z,6.10
2023-05-25T14:54:07.977Z,6.00
2023-05-25T14:56:35.471Z,6.93
2023-05-25T14:59:02.188Z,7.53
2023-05-25T15:01:29.406Z,6.20
2023-05-25T15:03:56.706Z,6.47
2023-05-25T15:06:23.656Z,5.80
2023-05-25T15:08:51.171Z,6.60
2023-05-25T15:11:18.183Z,7.90
2023-05-25T15:13:45.246Z,8.90
2023-05-25T15:16:19.267Z,7.73
2023-05-25T15:18:45.995Z,6.77
2023-05-25T15:21:12.706Z,12.20
2023-05-25T15:23:39.485Z,7.60
2023-05-25T15:26:08.048Z,9.60
2023-05-25T15:28:35.098Z,8.60
2023-05-25T15:31:03.307Z,11.70
2023-05-25T15:33:49.545Z,6.57
2023-05-25T15:36:19.151Z,7.03
2023-05-25T15:38:49.103Z,6.53
2023-05-25T15:41:17.096Z,6.03
2023-05-25T15:43:52.234Z,6.77
2023-05-25T15:46:19.157Z,6.97
2023-05-25T15:48:45.966Z,6.43
2023-05-25T15:51:12.794Z,7.70
2023-05-25T15:53:39.633Z,7.30
2023-05-25T15:56:06.551Z,5.40
2023-05-25T15:58:34.420Z,5.50
2023-05-25T16:01:01.573Z,6.13
2023-05-25T16:03:28.581Z,5.70
2023-05-25T16:05:55.668Z,5.90
2023-05-25T16:08:22.472Z,5.97
2023-05-25T16:10:49.293Z,5.30
2023-05-25T16:13:16.102Z,4.80
2023-05-25T16:15:42.895Z,5.50
2023-05-25T16:18:09.758Z,5.83
2023-05-25T16:20:36.594Z,5.60
2023-05-25T16:23:03.453Z,8.43
2023-05-25T16:25:30.205Z,6.10
2023-05-25T16:27:57.160Z,7.17
2023-05-25T16:30:23.875Z,6.60
2023-05-25T16:32:50.679Z,7.80
2023-05-25T16:35:17.418Z,7.80
2023-05-25T16:37:44.810Z,6.80
2023-05-25T16:40:11.829Z,11.60
2023-05-25T16:42:38.557Z,7.97
2023-05-25T16:45:05.940Z,8.40
2023-05-25T16:47:32.692Z,6.93
2023-05-25T16:49:59.381Z,7.33
2023-05-25T16:52:26.059Z,7.77
2023-05-25T16:54:52.910Z,9.17
2023-05-25T16:57:19.603Z,4.77
2023-05-25T16:59:46.358Z,9.43
2023-05-25T17:02:13.046Z,7.70
2023-05-25T17:04:39.760Z,6.97
2023-05-25T17:07:06.512Z,6.20
2023-05-25T17:09:33.278Z,10.67
2023-05-25T17:12:01.587Z,7.07
2023-05-25T17:14:28.363Z,4.37
2023-05-25T17:16:55.296Z,5.63
2023-05-25T17:19:22.191Z,4.20
2023-05-25T17:21:48.915Z,5.67
2023-05-25T17:24:15.889Z,4.77
2023-05-25T17:26:42.581Z,4.83
2023-05-25T17:29:09.254Z,5.17
2023-05-25T17:31:36.041Z,5.00
2023-05-25T17:34:03.138Z,5.50
2023-05-25T17:36:29.866Z,5.20
2023-05-25T17:38:56.538Z,6.20
2023-05-25T17:41:23.421Z,5.37
2023-05-25T17:43:50.084Z,4.60
2023-05-25T17:46:17.466Z,5.33
2023-05-25T17:48:44.242Z,6.37
2023-05-25T17:51:11.090Z,4.40
2023-05-25T17:53:40.247Z,4.23
2023-05-25T17:56:07.615Z,3.83
2023-05-25T17:58:34.727Z,4.73
2023-05-25T18:01:01.739Z,4.70
2023-05-25T18:03:28.645Z,8.27
2023-05-25T18:05:55.523Z,5.20
2023-05-25T18:08:22.353Z,6.80
2023-05-25T18:10:50.240Z,7.60
2023-05-25T18:13:16.951Z,5.73
2023-05-25T18:15:43.984Z,4.60
2023-05-25T18:18:11.050Z,4.57
2023-05-25T18:20:37.819Z,4.50
2023-05-25T18:23:06.607Z,5.60
2023-05-25T18:25:33.695Z,6.30
2023-05-25T18:28:00.442Z,4.70
2023-05-25T18:30:27.238Z,4.90
2023-05-25T18:32:54.069Z,4.63
2023-05-25T18:35:21.143Z,4.20
2023-05-25T18:37:47.943Z,3.77
2023-05-25T18:40:14.729Z,4.77
2023-05-25T18:42:41.543Z,5.30
2023-05-25T18:45:08.688Z,4.40
2023-05-25T18:47:35.601Z,4.50
2023-05-25T18:50:03.099Z,4.33
2023-05-25T18:52:29.979Z,4.30
2023-05-25T18:54:56.706Z,3.93
2023-05-25T18:57:23.415Z,4.63
2023-05-25T18:59:50.332Z,4.00
2023-05-25T19:02:17.078Z,3.77
2023-05-25T19:04:43.909Z,4.00
2023-05-25T19:07:10.735Z,4.07
2023-05-25T19:09:37.524Z,4.20
2023-05-25T19:12:07.003Z,4.00
2023-05-25T19:14:33.771Z,3.87
2023-05-25T19:17:00.597Z,4.50
2023-05-25T19:19:27.442Z,3.60
2023-05-25T19:21:54.207Z,4.47
2023-05-25T19:24:21.106Z,3.20
2023-05-25T19:26:49.692Z,4.00
2023-05-25T19:29:16.836Z,3.80
2023-05-25T19:31:43.651Z,4.60
2023-05-25T19:34:10.490Z,3.77
2023-05-25T19:36:37.175Z,4.10
2023-05-25T19:39:04.907Z,4.50
2023-05-25T19:41:31.669Z,3.73
2023-05-25T19:43:58.434Z,4.20
2023-05-25T19:46:25.391Z,3.90
2023-05-25T19:48:52.438Z,4.33
2023-05-25T19:51:19.123Z,4.50
2023-05-25T19:53:47.912Z,5.03
2023-05-25T19:56:14.903Z,3.63
2023-05-25T19:58:42.108Z,4.03
2023-05-25T20:01:08.974Z,3.10
2023-05-25T20:03:35.851Z,4.40
2023-05-25T20:06:02.620Z,4.60
2023-05-25T20:08:29.342Z,4.20
2023-05-25T20:10:56.025Z,3.97
2023-05-25T20:13:22.930Z,4.33
2023-05-25T20:15:49.752Z,4.07
2023-05-25T20:18:18.112Z,4.20
2023-05-25T20:20:45.006Z,3.70
2023-05-25T20:23:11.876Z,5.10
2023-05-25T20:25:38.594Z,4.00
2023-05-25T20:28:05.377Z,4.20
2023-05-25T20:30:32.139Z,3.97
2023-05-25T20:32:58.995Z,4.43
2023-05-25T20:35:25.930Z,4.90
2023-05-25T20:37:52.634Z,4.10
2023-05-25T20:40:19.449Z,3.77
2023-05-25T20:42:46.133Z,4.83
2023-05-25T20:45:12.849Z,4.60
2023-05-25T20:47:42.973Z,4.83
2023-05-25T20:50:10.269Z,4.60
2023-05-25T20:52:37.259Z,4.73
2023-05-25T20:55:04.243Z,4.30
2023-05-25T20:57:31.190Z,4.60
2023-05-25T20:59:59.864Z,4.50
2023-05-25T21:02:28.520Z,5.00
2023-05-25T21:04:55.478Z,4.07
2023-05-25T21:07:22.244Z,4.60
2023-05-25T21:09:48.971Z,4.93
2023-05-25T21:12:16.105Z,4.43
2023-05-25T21:14:42.849Z,4.73
2023-05-25T21:17:09.687Z,4.53
2023-05-25T21:19:36.496Z,4.47
2023-05-25T21:22:03.294Z,5.30
2023-05-25T21:24:30.039Z,4.20
2023-05-25T21:26:56.769Z,4.57
2023-05-25T21:29:23.494Z,4.67
2023-05-25T21:31:50.249Z,6.83
2023-05-25T21:34:17.001Z,12.80
2023-05-25T21:36:43.710Z,12.80
2023-05-25T21:39:10.691Z,12.40
2023-05-25T21:41:37.612Z,10.73
2023-05-25T21:44:04.391Z,10.87
2023-05-25T21:46:31.086Z,7.67
2023-05-25T21:48:57.932Z,7.80
2023-05-25T21:51:24.916Z,6.60
2023-05-25T21:53:51.866Z,6.27
2023-05-25T21:56:18.758Z,6.30
2023-05-25T21:58:45.515Z,6.60
2023-05-25T22:01:12.310Z,6.40
2023-05-25T22:03:39.144Z,5.90
2023-05-25T22:06:05.985Z,6.27
2023-05-25T22:08:32.656Z,6.83
2023-05-25T22:10:59.334Z,7.90
2023-05-25T22:13:26.071Z,9.37
2023-05-25T22:15:52.755Z,16.50
2023-05-25T22:18:19.520Z,20.03
2023-05-25T22:20:46.342Z,20.07
2023-05-25T22:23:13.336Z,17.87
2023-05-25T22:25:40.083Z,15.33
2023-05-25T22:28:07.095Z,11.60
2023-05-25T22:30:33.809Z,9.90
2023-05-25T22:33:00.800Z,8.90
2023-05-25T22:35:27.589Z,11.80
2023-05-25T22:37:54.310Z,14.10
2023-05-25T22:40:21.007Z,12.87
2023-05-25T22:42:50.278Z,10.93
2023-05-25T22:45:18.057Z,11.00
2023-05-25T22:47:44.962Z,11.90
2023-05-25T22:50:12.664Z,9.20
2023-05-25T22:52:41.388Z,6.60
2023-05-25T22:55:09.526Z,9.73
2023-05-25T22:57:36.482Z,12.03
2023-05-25T23:00:04.618Z,12.77
2023-05-25T23:02:31.395Z,12.83
2023-05-25T23:04:58.197Z,11.67
2023-05-25T23:07:24.897Z,9.57
2023-05-25T23:09:51.599Z,13.50
2023-05-25T23:12:18.275Z,11.37
2023-05-25T23:14:45.071Z,11.10
2023-05-25T23:17:11.752Z,8.67
2023-05-25T23:19:39.469Z,8.97
2023-05-25T23:22:06.234Z,7.43
2023-05-25T23:24:32.915Z,7.10
2023-05-25T23:26:59.575Z,7.10
2023-05-25T23:29:26.290Z,6.93
2023-05-25T23:31:53.027Z,7.33
2023-05-25T23:34:19.998Z,7.27
2023-05-25T23:36:46.697Z,7.90
2023-05-25T23:39:13.433Z,8.27
2023-05-25T23:41:40.132Z,8.87
2023-05-25T23:44:07.193Z,9.67
2023-05-25T23:46:34.145Z,9.70
2023-05-25T23:49:01.144Z,14.50
2023-05-25T23:51:27.839Z,24.37
2023-05-25T23:53:54.569Z,21.93
2023-05-25T23:56:21.923Z,16.70
2023-05-25T23:58:48.745Z,11.10
